createdAt,value
2022-10-01T00:04:58.527Z,4.77
2022-10-01T00:10:00.497Z,4.56
2022-10-01T00:15:06.158Z,4.60
2022-10-01T00:20:14.116Z,4.44
2022-10-01T00:25:16.345Z,4.46
2022-10-01T00:30:19.434Z,4.43
2022-10-01T00:35:21.753Z,4.26
2022-10-01T00:40:23.461Z,4.16
2022-10-01T00:45:26.565Z,4.24
2022-10-01T00:50:32.486Z,4.40
2022-10-01T00:55:37.382Z,4.30
2022-10-01T01:00:42.710Z,4.41
2022-10-01T01:05:44.468Z,4.41
2022-10-01T01:10:55.141Z,4.28
2022-10-01T01:16:06.128Z,4.38
2022-10-01T01:21:24.552Z,4.27
2022-10-01T01:26:36.114Z,4.27
2022-10-01T01:31:43.516Z,4.23
2022-10-01T01:36:50.228Z,4.19
2022-10-01T01:41:58.066Z,4.39
2022-10-01T01:47:02.287Z,4.59
2022-10-01T01:52:08.270Z,4.99
2022-10-01T01:57:11.331Z,5.32
2022-10-01T02:02:16.876Z,5.47
2022-10-01T02:07:33.322Z,5.57
2022-10-01T02:12:52.129Z,5.67
2022-10-01T02:18:03.043Z,5.80
2022-10-01T02:23:07.976Z,5.96
2022-10-01T02:28:13.133Z,5.92
2022-10-01T02:33:21.703Z,5.93
2022-10-01T02:38:24.746Z,6.07
2022-10-01T02:43:30.862Z,6.09
2022-10-01T02:48:33.987Z,6.09
2022-10-01T02:53:41.355Z,6.15
2022-10-01T02:58:43.065Z,6.15
2022-10-01T03:03:46.073Z,6.17
2022-10-01T03:08:47.806Z,6.18
2022-10-01T03:13:49.523Z,6.19
2022-10-01T03:18:52.809Z,6.15
2022-10-01T03:23:54.714Z,6.20
2022-10-01T03:28:56.356Z,6.19
2022-10-01T03:33:59.426Z,6.22
2022-10-01T03:39:01.479Z,6.30
2022-10-01T03:44:03.323Z,6.26
2022-10-01T03:49:06.349Z,6.31
2022-10-01T03:54:08.933Z,6.31
2022-10-01T03:59:10.999Z,6.35
2022-10-01T04:04:13.996Z,6.34
2022-10-01T04:09:16.863Z,6.28
2022-10-01T04:14:18.627Z,6.29
2022-10-01T04:19:21.665Z,6.27
2022-10-01T04:24:23.899Z,6.31
2022-10-01T04:29:25.608Z,6.38
2022-10-01T04:34:28.664Z,6.41
2022-10-01T04:39:30.512Z,6.44
2022-10-01T04:44:32.224Z,6.59
2022-10-01T04:49:35.214Z,6.60
2022-10-01T04:54:36.823Z,6.57
2022-10-01T04:59:38.479Z,6.67
2022-10-01T05:04:41.443Z,6.73
2022-10-01T05:09:43.671Z,6.87
2022-10-01T05:14:45.646Z,6.92
2022-10-01T05:19:49.119Z,6.97
2022-10-01T05:24:51.486Z,6.96
2022-10-01T05:29:53.551Z,6.95
2022-10-01T05:34:57.161Z,7.05
2022-10-01T05:39:59.234Z,7.12
2022-10-01T05:45:01.147Z,7.19
2022-10-01T05:50:04.854Z,7.23
2022-10-01T05:55:07.340Z,7.39
2022-10-01T06:00:10.083Z,7.61
2022-10-01T06:05:13.476Z,7.85
2022-10-01T06:10:15.825Z,7.91
2022-10-01T06:15:18.626Z,8.02
2022-10-01T06:20:21.687Z,8.09
2022-10-01T06:25:28.573Z,8.17
2022-10-01T06:30:35.382Z,8.28
2022-10-01T06:35:42.690Z,8.41
2022-10-01T06:40:44.902Z,8.44
2022-10-01T06:45:46.845Z,8.53
2022-10-01T06:50:50.530Z,8.58
2022-10-01T06:55:52.563Z,8.66
2022-10-01T07:00:59.082Z,8.71
2022-10-01T07:06:03.580Z,8.80
2022-10-01T07:11:05.872Z,8.92
2022-10-01T07:16:08.323Z,9.03
2022-10-01T07:21:11.757Z,9.21
2022-10-01T07:26:13.713Z,9.33
2022-10-01T07:31:15.574Z,9.56
2022-10-01T07:36:18.924Z,9.70
2022-10-01T07:41:20.639Z,9.87
2022-10-01T07:46:22.402Z,10.06
2022-10-01T07:51:26.379Z,10.20
2022-10-01T07:56:28.894Z,10.36
2022-10-01T08:01:31.063Z,10.56
2022-10-01T08:06:34.388Z,10.60
2022-10-01T08:11:36.852Z,10.65
2022-10-01T08:16:39.160Z,10.69
2022-10-01T08:21:43.015Z,10.67
2022-10-01T08:26:45.526Z,10.78
2022-10-01T08:31:47.785Z,10.96
2022-10-01T08:36:52.323Z,11.32
2022-10-01T08:42:02.876Z,11.49
2022-10-01T08:47:13.405Z,11.82
2022-10-01T08:52:23.133Z,11.94
2022-10-01T08:57:30.222Z,12.18
2022-10-01T09:02:34.464Z,12.57
2022-10-01T09:07:56.514Z,12.65
2022-10-01T09:13:24.895Z,12.45
2022-10-01T09:18:39.018Z,12.57
2022-10-01T09:23:51.944Z,12.86
2022-10-01T09:28:55.725Z,12.79
2022-10-01T09:34:03.984Z,12.55
2022-10-01T09:39:16.869Z,12.13
2022-10-01T09:44:26.680Z,11.98
2022-10-01T09:49:32.037Z,11.70
2022-10-01T09:54:41.363Z,11.57
2022-10-01T09:59:49.055Z,11.51
2022-10-01T10:04:59.703Z,11.51
2022-10-01T10:10:12.183Z,11.28
2022-10-01T10:15:17.559Z,11.16
2022-10-01T10:20:25.329Z,11.11
2022-10-01T10:25:28.325Z,11.02
2022-10-01T10:30:30.562Z,10.92
2022-10-01T10:35:32.738Z,10.92
2022-10-01T10:40:42.586Z,10.93
2022-10-01T10:45:44.689Z,11.03
2022-10-01T10:50:46.612Z,10.99
2022-10-01T10:55:57.563Z,10.99
2022-10-01T11:01:02.801Z,11.04
2022-10-01T11:06:10.838Z,11.23
2022-10-01T11:11:30.177Z,11.28
2022-10-01T11:16:43.845Z,11.34
2022-10-01T11:21:59.827Z,11.40
2022-10-01T11:27:10.598Z,11.47
2022-10-01T11:32:22.038Z,11.33
2022-10-01T11:37:40.537Z,11.32
2022-10-01T11:42:46.464Z,11.23
2022-10-01T11:47:53.529Z,11.25
2022-10-01T11:53:00.060Z,11.51
2022-10-01T11:58:12.613Z,11.41
2022-10-01T12:03:20.412Z,11.18
2022-10-01T12:08:26.372Z,11.05
2022-10-01T12:13:32.918Z,10.96
2022-10-01T12:18:46.248Z,10.94
2022-10-01T12:23:53.608Z,10.79
2022-10-01T12:29:06.422Z,10.85
2022-10-01T12:34:17.289Z,10.86
2022-10-01T12:39:43.753Z,10.86
2022-10-01T12:45:00.508Z,10.92
2022-10-01T12:50:14.466Z,11.03
2022-10-01T12:55:45.577Z,11.11
2022-10-01T13:01:00.426Z,11.29
2022-10-01T13:06:15.200Z,11.45
2022-10-01T13:11:30.082Z,11.72
2022-10-01T13:16:39.847Z,11.92
2022-10-01T13:21:55.759Z,12.69
2022-10-01T13:27:02.660Z,12.98
2022-10-01T13:32:28.522Z,12.91
2022-10-01T13:37:37.266Z,13.08
2022-10-01T13:42:45.910Z,13.47
2022-10-01T13:47:49.769Z,13.35
2022-10-01T13:52:53.076Z,13.71
2022-10-01T13:58:05.819Z,13.69
2022-10-01T14:03:30.389Z,13.73
2022-10-01T14:08:38.593Z,13.40
2022-10-01T14:13:46.227Z,13.41
2022-10-01T14:18:50.338Z,13.45
2022-10-01T14:23:58.994Z,13.57
2022-10-01T14:29:14.238Z,13.55
2022-10-01T14:34:50.607Z,13.46
2022-10-01T14:40:03.342Z,13.34
2022-10-01T14:45:14.865Z,13.48
2022-10-01T14:50:20.363Z,13.45
2022-10-01T14:55:23.702Z,13.47
2022-10-01T15:00:28.198Z,13.43
2022-10-01T15:05:33.460Z,13.54
2022-10-01T15:10:35.846Z,13.64
2022-10-01T15:15:41.529Z,13.59
2022-10-01T15:20:53.677Z,13.70
2022-10-01T15:25:57.903Z,13.59
2022-10-01T15:31:01.064Z,13.58
2022-10-01T15:36:06.154Z,13.58
2022-10-01T15:41:31.679Z,13.46
2022-10-01T15:46:34.568Z,13.37
2022-10-01T15:51:47.120Z,13.26
2022-10-01T15:56:48.898Z,13.17
2022-10-01T16:01:50.861Z,13.35
2022-10-01T16:06:54.001Z,13.39
2022-10-01T16:11:58.345Z,13.23
2022-10-01T16:17:24.694Z,12.99
2022-10-01T16:22:29.950Z,12.76
2022-10-01T16:27:35.191Z,12.63
2022-10-01T16:32:37.342Z,12.45
2022-10-01T16:37:40.310Z,12.43
2022-10-01T16:42:43.332Z,12.28
2022-10-01T16:47:46.040Z,12.14
2022-10-01T16:52:52.441Z,12.06
2022-10-01T16:57:54.853Z,11.97
2022-10-01T17:02:58.162Z,11.94
2022-10-01T17:08:02.222Z,11.89
2022-10-01T17:13:04.514Z,11.96
2022-10-01T17:18:06.593Z,11.89
2022-10-01T17:23:11.296Z,11.81
2022-10-01T17:28:15.427Z,11.83
2022-10-01T17:33:18.914Z,11.83
2022-10-01T17:38:22.591Z,11.94
2022-10-01T17:43:24.493Z,12.05
2022-10-01T17:48:27.710Z,12.23
2022-10-01T17:53:36.157Z,12.39
2022-10-01T17:58:45.709Z,12.55
2022-10-01T18:03:52.827Z,12.71
2022-10-01T18:08:58.070Z,12.76
2022-10-01T18:14:03.499Z,12.68
2022-10-01T18:24:30.486Z,12.55
2022-10-01T18:29:32.453Z,12.40
2022-10-01T18:34:40.019Z,12.35
2022-10-01T18:39:46.977Z,12.21
2022-10-01T18:44:52.496Z,12.12
2022-10-01T18:50:03.765Z,12.10
2022-10-01T18:55:33.874Z,12.05
2022-10-01T19:00:42.232Z,11.92
2022-10-01T19:06:07.352Z,11.85
2022-10-01T19:11:18.350Z,11.97
2022-10-01T19:16:36.016Z,11.94
2022-10-01T19:21:46.240Z,11.82
2022-10-01T19:26:57.312Z,11.75
2022-10-01T19:32:03.083Z,11.55
2022-10-01T19:37:10.359Z,11.38
2022-10-01T19:42:18.121Z,11.26
2022-10-01T19:47:30.850Z,11.18
2022-10-01T19:52:36.608Z,11.11
2022-10-01T19:57:41.890Z,11.02
2022-10-01T20:02:51.188Z,10.96
2022-10-01T20:07:59.631Z,10.88
2022-10-01T20:13:19.210Z,10.87
2022-10-01T20:18:33.028Z,10.83
2022-10-01T20:23:43.208Z,10.80
2022-10-01T20:28:54.602Z,10.78
2022-10-01T20:34:03.760Z,10.77
2022-10-01T20:39:15.623Z,10.70
2022-10-01T20:44:22.448Z,10.78
2022-10-01T20:49:28.070Z,10.84
2022-10-01T20:54:35.339Z,10.89
2022-10-01T20:59:42.155Z,10.94
2022-10-01T21:04:51.348Z,10.83
2022-10-01T21:09:58.069Z,10.85
2022-10-01T21:15:02.266Z,10.89
2022-10-01T21:20:23.774Z,10.99
2022-10-01T21:25:41.757Z,11.00
2022-10-01T21:31:02.109Z,11.00
2022-10-01T21:36:11.326Z,11.00
2022-10-01T21:41:28.429Z,10.98
2022-10-01T21:46:39.206Z,10.88
2022-10-01T21:51:57.545Z,10.89
2022-10-01T21:57:09.528Z,10.87
2022-10-01T22:02:27.761Z,10.76
2022-10-01T22:07:36.206Z,10.75
2022-10-01T22:12:41.298Z,10.73
2022-10-01T22:17:46.672Z,10.64
2022-10-01T22:22:52.140Z,10.68
2022-10-01T22:27:59.757Z,10.58
2022-10-01T22:33:08.535Z,10.57
2022-10-01T22:38:16.682Z,10.60
2022-10-01T22:43:18.585Z,10.56
2022-10-01T22:48:37.941Z,10.46
2022-10-01T22:53:56.923Z,10.47
2022-10-01T22:59:09.327Z,10.46
2022-10-01T23:04:33.195Z,10.42
2022-10-01T23:09:41.270Z,10.46
2022-10-01T23:14:55.812Z,10.44
2022-10-01T23:20:08.443Z,10.47
2022-10-01T23:25:28.761Z,10.45
2022-10-01T23:30:37.160Z,10.41
2022-10-01T23:35:51.280Z,10.55
2022-10-01T23:40:56.392Z,10.56
2022-10-01T23:46:04.092Z,10.51
2022-10-01T23:51:13.027Z,10.60
2022-10-01T23:56:19.204Z,10.65
